Terminal Aerodrome Forecast
Issued by NWS Bismarck, ND

Home | Current Version | Previous Version | Graphics & Text | Print | Product List | Glossary On
Versions: 1 2 3 4 5 6 7 8 9 10 11 12 13 14 15 16 17 18 19 20 21
377
FTUS43 KBIS 260521
TAFISN
TAF
KISN 260521Z 2606/2706 00000KT 5SM BR VCSH SCT004 BKN010 OVC035
      TEMPO 2606/2609 4SM BR BKN004 OVC010
     FM260900 00000KT 6SM BR BKN015 OVC030
     FM261400 VRB03KT P6SM SCT030 BKN035
     FM261800 VRB03KT P6SM FEW045 SCT060=

USA.gov is the U.S. government's official web portal to all federal, state and local government web resources and services.